< < Back
Terminal Aerodrome Forecast


Current Version              Previous Versions:   1  2  3  4  5  6  7  8  9  

Terminal Aerodrome Forecast

101
FTUS42 KJAX 280521
TAFSSI
TAF
KSSI 280521Z 2806/2906 11005KT P6SM BKN250
     FM281500 11012KT P6SM FEW040 BKN250
     FM290200 10006KT P6SM SCT250=

Latest METAR

N/A

USA.gov is the U.S. government's official web portal to all federal, state and local government web resources and services.